createdAt,value
2018-11-25T00:02:18.031Z,9.60
2018-11-25T00:04:45.864Z,9.60
2018-11-25T00:07:13.657Z,9.60
2018-11-25T00:09:41.444Z,9.60
2018-11-25T00:12:09.030Z,9.60
2018-11-25T00:14:36.777Z,9.60
2018-11-25T00:17:04.815Z,9.60
2018-11-25T00:19:32.707Z,9.60
2018-11-25T00:22:00.655Z,9.50
2018-11-25T00:24:28.843Z,9.60
2018-11-25T00:26:57.029Z,9.50
2018-11-25T00:29:25.025Z,9.30
2018-11-25T00:31:53.274Z,9.30
2018-11-25T00:34:21.215Z,9.10
2018-11-25T00:36:49.185Z,9.30
2018-11-25T00:39:17.474Z,9.30
2018-11-25T00:41:45.211Z,9.40
2018-11-25T00:44:12.992Z,9.40
2018-11-25T00:46:40.803Z,9.30
2018-11-25T00:49:08.795Z,9.30
2018-11-25T00:51:37.542Z,9.20
2018-11-25T00:54:05.940Z,9.10
2018-11-25T00:56:33.657Z,9.10
2018-11-25T00:59:01.263Z,9.10
2018-11-25T01:01:28.838Z,9.20
2018-11-25T01:03:56.590Z,9.20
2018-11-25T01:06:25.245Z,9.20
2018-11-25T01:08:52.890Z,9.10
2018-11-25T01:11:20.618Z,9.10
2018-11-25T01:13:48.207Z,9.00
2018-11-25T01:16:15.895Z,9.10
2018-11-25T01:18:44.356Z,9.10
2018-11-25T01:21:12.216Z,9.20
2018-11-25T01:23:39.851Z,9.30
2018-11-25T01:26:08.140Z,9.10
2018-11-25T01:28:35.672Z,9.00
2018-11-25T01:31:04.094Z,9.00
2018-11-25T01:33:32.050Z,9.00
2018-11-25T01:36:00.445Z,9.00
2018-11-25T01:38:28.409Z,9.00
2018-11-25T01:40:56.001Z,9.00
2018-11-25T01:43:23.643Z,9.20
2018-11-25T01:45:51.591Z,9.20
2018-11-25T01:48:19.965Z,9.10
2018-11-25T01:50:47.648Z,9.00
2018-11-25T01:53:15.327Z,9.10
2018-11-25T01:55:43.075Z,8.90
2018-11-25T01:58:10.738Z,8.90
2018-11-25T02:00:38.451Z,9.00
2018-11-25T02:03:06.224Z,9.10
2018-11-25T02:05:33.863Z,8.90
2018-11-25T02:08:01.500Z,8.80
2018-11-25T02:10:29.082Z,8.80
2018-11-25T02:12:56.761Z,8.80
2018-11-25T02:15:24.382Z,8.80
2018-11-25T02:17:52.676Z,8.80
2018-11-25T02:20:21.610Z,8.80
2018-11-25T02:22:50.689Z,8.90
2018-11-25T02:25:18.435Z,8.80
2018-11-25T02:27:46.149Z,8.80
2018-11-25T02:30:15.045Z,8.70
2018-11-25T02:32:42.899Z,8.90
2018-11-25T02:35:11.386Z,8.80
2018-11-25T02:37:39.063Z,8.70
2018-11-25T02:40:10.844Z,8.70
2018-11-25T02:42:38.604Z,8.80
2018-11-25T02:45:09.199Z,8.70
2018-11-25T02:47:36.832Z,8.70
2018-11-25T02:50:06.670Z,8.80
2018-11-25T02:52:34.315Z,8.70
2018-11-25T02:55:01.940Z,8.50
2018-11-25T02:57:29.592Z,8.60
2018-11-25T02:59:57.185Z,8.50
2018-11-25T03:02:24.812Z,8.40
2018-11-25T03:04:52.393Z,8.50
2018-11-25T03:07:20.000Z,8.50
2018-11-25T03:09:47.613Z,8.50
2018-11-25T03:12:15.203Z,8.50
2018-11-25T03:14:42.811Z,8.40
2018-11-25T03:17:10.623Z,8.30
2018-11-25T03:19:38.212Z,8.30
2018-11-25T03:22:05.871Z,8.40
2018-11-25T03:24:33.530Z,8.30
2018-11-25T03:27:05.450Z,8.30
2018-11-25T03:29:33.031Z,8.30
2018-11-25T03:32:00.656Z,8.50
2018-11-25T03:34:28.257Z,8.60
2018-11-25T03:36:55.913Z,8.60
2018-11-25T03:39:23.562Z,8.50
2018-11-25T03:41:51.169Z,8.40
2018-11-25T03:44:18.747Z,8.30
2018-11-25T03:46:46.377Z,8.40
2018-11-25T03:49:14.014Z,8.40
2018-11-25T03:51:41.748Z,8.40
2018-11-25T03:54:09.375Z,8.30
2018-11-25T03:56:37.462Z,8.20
2018-11-25T03:59:05.530Z,8.10
2018-11-25T04:01:33.173Z,8.10
2018-11-25T04:04:00.804Z,8.00
2018-11-25T04:06:28.496Z,8.00
2018-11-25T04:08:56.071Z,7.90
2018-11-25T04:11:23.784Z,7.90
2018-11-25T04:13:51.482Z,7.90
2018-11-25T04:16:19.044Z,7.90
2018-11-25T04:18:46.693Z,7.90
2018-11-25T04:21:15.112Z,8.00
2018-11-25T04:23:43.119Z,8.00
2018-11-25T04:26:11.428Z,8.00
2018-11-25T04:28:39.112Z,8.10
2018-11-25T04:31:06.678Z,8.30
2018-11-25T04:33:34.336Z,8.30
2018-11-25T04:36:02.028Z,8.20
2018-11-25T04:38:29.642Z,8.20
2018-11-25T04:40:57.283Z,8.10
2018-11-25T04:43:24.852Z,8.00
2018-11-25T04:45:52.460Z,8.00
2018-11-25T04:48:20.077Z,8.00
2018-11-25T04:50:47.659Z,8.00
2018-11-25T04:53:15.271Z,8.00
2018-11-25T04:55:42.823Z,8.10
2018-11-25T04:58:10.408Z,8.20
2018-11-25T05:00:37.985Z,8.30
2018-11-25T05:03:05.603Z,8.30
2018-11-25T05:05:33.327Z,8.40
2018-11-25T05:08:01.614Z,8.40
2018-11-25T05:10:29.201Z,8.40
2018-11-25T05:12:56.794Z,8.60
2018-11-25T05:15:24.410Z,8.40
2018-11-25T05:17:52.612Z,8.30
2018-11-25T05:20:20.461Z,8.10
2018-11-25T05:22:48.124Z,8.00
2018-11-25T05:25:16.748Z,8.00
2018-11-25T05:27:45.184Z,7.90
2018-11-25T05:30:15.817Z,7.90
2018-11-25T05:32:43.550Z,7.80
2018-11-25T05:35:12.575Z,7.70
2018-11-25T05:37:40.407Z,7.90
2018-11-25T05:40:11.933Z,8.10
2018-11-25T05:42:39.771Z,8.20
2018-11-25T05:45:09.150Z,8.50
2018-11-25T05:47:36.866Z,8.60
2018-11-25T05:50:05.397Z,8.70
2018-11-25T05:52:33.002Z,8.60
2018-11-25T05:55:00.695Z,8.50
2018-11-25T05:57:28.415Z,8.30
2018-11-25T05:59:56.013Z,8.30
2018-11-25T06:02:24.253Z,8.20
2018-11-25T06:04:51.907Z,8.10
2018-11-25T06:07:19.556Z,8.00
2018-11-25T06:09:47.169Z,8.00
2018-11-25T06:12:14.835Z,8.00
2018-11-25T06:14:42.471Z,8.00
2018-11-25T06:17:10.163Z,8.00
2018-11-25T06:19:38.411Z,8.10
2018-11-25T06:22:06.320Z,7.90
2018-11-25T06:24:33.887Z,7.90
2018-11-25T06:27:01.535Z,7.80
2018-11-25T06:29:29.386Z,7.70
2018-11-25T06:31:56.977Z,7.70
2018-11-25T06:34:24.763Z,7.70
2018-11-25T06:36:52.486Z,7.70
2018-11-25T06:39:20.100Z,7.70
2018-11-25T06:41:47.747Z,7.80
2018-11-25T06:44:16.117Z,7.90
2018-11-25T06:46:43.772Z,8.00
2018-11-25T06:49:11.471Z,8.10
2018-11-25T06:51:39.244Z,8.00
2018-11-25T06:54:06.883Z,7.90
2018-11-25T06:56:35.336Z,7.70
2018-11-25T06:59:03.066Z,7.60
2018-11-25T07:01:30.691Z,7.40
2018-11-25T07:03:58.367Z,7.40
2018-11-25T07:06:25.967Z,7.30
2018-11-25T07:08:54.490Z,7.10
2018-11-25T07:11:22.123Z,7.10
2018-11-25T07:13:50.499Z,7.10
2018-11-25T07:16:18.091Z,7.10
2018-11-25T07:18:45.739Z,7.00
2018-11-25T07:21:13.433Z,6.90
2018-11-25T07:23:41.014Z,6.80
2018-11-25T07:26:08.637Z,6.80
2018-11-25T07:28:36.329Z,6.80
2018-11-25T07:31:04.829Z,6.80
2018-11-25T07:33:32.454Z,6.70
2018-11-25T07:36:00.201Z,6.80
2018-11-25T07:38:27.795Z,6.80
2018-11-25T07:40:55.471Z,6.70
2018-11-25T07:43:23.724Z,6.70
2018-11-25T07:45:52.015Z,6.50
2018-11-25T07:48:20.314Z,6.50
2018-11-25T07:50:48.572Z,6.50
2018-11-25T07:53:16.167Z,6.40
2018-11-25T07:55:43.842Z,6.40
2018-11-25T07:58:11.546Z,6.40
2018-11-25T08:00:39.238Z,6.50
2018-11-25T08:03:06.954Z,6.50
2018-11-25T08:05:34.690Z,6.60
2018-11-25T08:08:02.493Z,6.70
2018-11-25T08:10:31.583Z,6.90
2018-11-25T08:12:59.177Z,6.90
2018-11-25T08:15:26.934Z,7.00
2018-11-25T08:17:54.592Z,7.00
2018-11-25T08:20:22.509Z,7.10
2018-11-25T08:22:50.618Z,7.20
2018-11-25T08:25:19.240Z,7.20
2018-11-25T08:27:46.941Z,7.20
2018-11-25T08:30:22.911Z,7.30
2018-11-25T08:32:51.047Z,7.40
2018-11-25T08:35:19.134Z,7.50
2018-11-25T08:37:47.335Z,7.60
2018-11-25T08:40:23.885Z,7.60
2018-11-25T08:42:51.836Z,7.70
2018-11-25T08:45:19.659Z,7.80
2018-11-25T08:47:47.527Z,7.90
2018-11-25T08:50:16.911Z,7.90
2018-11-25T08:52:46.762Z,7.70
2018-11-25T08:55:17.293Z,7.60
2018-11-25T08:57:45.009Z,7.60
2018-11-25T09:00:14.840Z,7.70
2018-11-25T09:02:42.628Z,7.80
2018-11-25T09:05:11.546Z,7.90
2018-11-25T09:07:39.258Z,8.00
2018-11-25T09:10:09.136Z,8.20
2018-11-25T09:12:36.793Z,8.40
2018-11-25T09:15:08.052Z,8.50
2018-11-25T09:17:35.979Z,8.60
2018-11-25T09:20:05.171Z,8.80
2018-11-25T09:22:33.152Z,9.10
2018-11-25T09:25:00.963Z,9.40
2018-11-25T09:27:28.718Z,9.60
2018-11-25T09:29:56.550Z,9.70
2018-11-25T09:32:25.590Z,9.70
2018-11-25T09:34:53.217Z,9.90
2018-11-25T09:37:20.868Z,10.10
2018-11-25T09:39:48.720Z,10.40
2018-11-25T09:42:16.455Z,10.50
2018-11-25T09:44:44.283Z,10.60
2018-11-25T09:47:11.906Z,10.90
2018-11-25T09:49:39.568Z,11.10
2018-11-25T09:52:07.283Z,11.20
2018-11-25T09:54:34.926Z,11.10
2018-11-25T09:57:02.586Z,10.90
2018-11-25T09:59:31.015Z,10.80
2018-11-25T10:01:58.720Z,10.80
2018-11-25T10:04:26.624Z,11.00
2018-11-25T10:06:54.421Z,11.10
2018-11-25T10:09:22.052Z,11.10
2018-11-25T10:11:49.679Z,11.10
2018-11-25T10:14:17.340Z,11.10
2018-11-25T10:16:45.077Z,11.10
2018-11-25T10:19:12.703Z,11.20
2018-11-25T10:21:40.341Z,11.20
2018-11-25T10:24:07.957Z,11.00
2018-11-25T10:26:35.642Z,11.10
2018-11-25T10:29:03.355Z,11.20
2018-11-25T10:31:31.067Z,11.00
2018-11-25T10:33:58.661Z,11.20
2018-11-25T10:36:26.264Z,11.30
2018-11-25T10:38:54.001Z,11.40
2018-11-25T10:41:21.827Z,11.30
2018-11-25T10:43:50.232Z,11.40
2018-11-25T10:46:18.155Z,11.40
2018-11-25T10:48:45.750Z,11.30
2018-11-25T10:51:13.339Z,11.30
2018-11-25T10:53:41.008Z,11.40
2018-11-25T10:56:09.441Z,11.40
2018-11-25T10:58:37.088Z,11.20
2018-11-25T11:01:11.109Z,11.30
2018-11-25T11:03:44.253Z,11.40
2018-11-25T11:06:17.440Z,11.50
2018-11-25T11:08:45.062Z,11.50
2018-11-25T11:11:12.741Z,11.40
2018-11-25T11:13:40.344Z,11.30
2018-11-25T11:16:08.190Z,11.20
2018-11-25T11:18:35.966Z,11.30
2018-11-25T11:21:03.724Z,11.40
2018-11-25T11:23:31.474Z,11.30
2018-11-25T11:26:06.501Z,11.50
2018-11-25T11:28:26.890Z,11.70
2018-11-25T11:30:54.531Z,11.80
2018-11-25T11:33:22.943Z,11.90
2018-11-25T11:35:50.623Z,11.90
2018-11-25T11:38:18.446Z,11.90
2018-11-25T11:40:46.137Z,11.70
2018-11-25T11:43:13.871Z,11.80
2018-11-25T11:45:41.560Z,11.70
2018-11-25T11:48:09.498Z,11.50
2018-11-25T11:50:37.169Z,11.40
2018-11-25T11:53:06.104Z,11.40
2018-11-25T11:55:34.063Z,11.40
2018-11-25T11:58:01.840Z,11.50
2018-11-25T12:00:30.537Z,11.70
2018-11-25T12:02:58.639Z,11.70
2018-11-25T12:05:26.477Z,11.90
2018-11-25T12:07:54.176Z,12.00
2018-11-25T12:10:22.056Z,12.00
2018-11-25T12:12:49.772Z,11.80
2018-11-25T12:15:29.952Z,11.90
2018-11-25T12:17:51.072Z,12.10
2018-11-25T12:20:21.380Z,12.20
2018-11-25T12:22:48.427Z,12.20
2018-11-25T12:25:16.935Z,12.20
2018-11-25T12:27:44.634Z,12.30
2018-11-25T12:30:14.335Z,12.30
2018-11-25T12:32:43.015Z,12.50
2018-11-25T12:35:11.933Z,12.50
2018-11-25T12:37:39.630Z,12.50
2018-11-25T12:40:15.183Z,12.60
2018-11-25T12:42:45.235Z,12.60
2018-11-25T12:45:15.053Z,12.60
2018-11-25T12:47:42.784Z,12.50
2018-11-25T12:50:11.889Z,12.40
2018-11-25T12:52:40.502Z,12.20
2018-11-25T12:55:10.973Z,11.90
2018-11-25T12:57:38.767Z,11.50
2018-11-25T13:00:15.705Z,11.40
2018-11-25T13:02:43.476Z,11.50
2018-11-25T13:05:11.239Z,11.40
2018-11-25T13:07:39.039Z,11.50
2018-11-25T13:10:07.359Z,11.60
2018-11-25T13:12:35.694Z,11.60
2018-11-25T13:15:04.476Z,11.70
2018-11-25T13:17:32.849Z,11.50
2018-11-25T13:20:00.448Z,11.30
2018-11-25T13:22:28.116Z,11.00
2018-11-25T13:24:55.826Z,11.00
2018-11-25T13:27:23.460Z,11.00
2018-11-25T13:29:51.187Z,10.90
2018-11-25T13:32:18.815Z,10.90
2018-11-25T13:34:46.444Z,10.90
2018-11-25T13:37:14.083Z,11.00
2018-11-25T13:39:41.841Z,11.20
2018-11-25T13:42:16.050Z,11.30
2018-11-25T13:44:44.483Z,11.40
2018-11-25T13:47:12.817Z,11.20
2018-11-25T13:49:40.624Z,11.10
2018-11-25T13:52:08.765Z,11.00
2018-11-25T13:54:37.427Z,10.90
2018-11-25T13:57:05.880Z,10.90
2018-11-25T13:59:33.792Z,10.90
2018-11-25T14:02:02.371Z,11.10
2018-11-25T14:04:30.068Z,11.00
2018-11-25T14:06:57.866Z,10.90
2018-11-25T14:09:26.575Z,10.80
2018-11-25T14:11:54.846Z,10.90
2018-11-25T14:14:22.453Z,10.90
2018-11-25T14:16:50.508Z,10.80
2018-11-25T14:19:18.370Z,10.70
2018-11-25T14:21:46.195Z,10.40
2018-11-25T14:24:14.205Z,10.30
2018-11-25T14:26:45.652Z,10.20
2018-11-25T14:29:14.646Z,10.20
2018-11-25T14:31:42.408Z,10.20
2018-11-25T14:34:10.235Z,10.20
2018-11-25T14:36:37.832Z,10.10
2018-11-25T14:39:09.822Z,10.10
2018-11-25T14:41:37.992Z,10.10
2018-11-25T14:44:06.813Z,10.00
2018-11-25T14:46:34.541Z,10.00
2018-11-25T14:49:02.331Z,10.10
2018-11-25T14:51:29.982Z,10.10
2018-11-25T14:53:57.672Z,10.10
2018-11-25T14:56:25.944Z,10.10
2018-11-25T14:58:53.703Z,10.10
2018-11-25T15:01:21.332Z,10.00
2018-11-25T15:03:50.620Z,9.90
2018-11-25T15:06:19.025Z,9.90
2018-11-25T15:08:46.965Z,10.00
2018-11-25T15:11:15.076Z,9.90
2018-11-25T15:13:42.937Z,9.90
2018-11-25T15:16:13.427Z,9.90
2018-11-25T15:18:41.135Z,9.80
2018-11-25T15:21:10.211Z,9.60
2018-11-25T15:23:37.936Z,9.50
2018-11-25T15:26:06.910Z,9.40
2018-11-25T15:28:34.775Z,9.20
2018-11-25T15:31:02.579Z,9.10
2018-11-25T15:33:30.268Z,9.00
2018-11-25T15:35:58.006Z,9.10
2018-11-25T15:38:25.686Z,9.10
2018-11-25T15:40:53.715Z,9.00
2018-11-25T15:43:21.522Z,8.90
2018-11-25T15:45:49.335Z,8.90
2018-11-25T15:48:19.072Z,8.80
2018-11-25T15:50:46.896Z,8.90
2018-11-25T15:53:14.872Z,8.90
2018-11-25T15:55:43.944Z,8.80
2018-11-25T15:58:11.646Z,8.80
2018-11-25T16:00:40.128Z,8.90
2018-11-25T16:03:10.176Z,8.80
2018-11-25T16:05:39.643Z,8.70
2018-11-25T16:08:08.125Z,8.60
2018-11-25T16:10:35.865Z,8.60
2018-11-25T16:13:03.569Z,8.50
2018-11-25T16:15:31.224Z,8.50
2018-11-25T16:17:59.080Z,8.60
2018-11-25T16:20:27.615Z,8.70
2018-11-25T16:22:57.771Z,8.70
2018-11-25T16:25:34.858Z,8.80
2018-11-25T16:28:06.982Z,8.60
2018-11-25T16:30:35.217Z,8.50
2018-11-25T16:33:02.849Z,8.50
2018-11-25T16:35:30.530Z,8.50
2018-11-25T16:37:58.351Z,8.40
2018-11-25T16:40:26.107Z,8.40
2018-11-25T16:42:53.735Z,8.50
2018-11-25T16:45:21.424Z,8.50
2018-11-25T16:47:49.075Z,8.60
2018-11-25T16:50:24.981Z,8.60
2018-11-25T16:52:45.146Z,8.70
2018-11-25T16:55:14.400Z,8.70
2018-11-25T16:57:42.787Z,8.70
2018-11-25T17:00:13.728Z,8.70
2018-11-25T17:02:41.362Z,8.60
2018-11-25T17:05:11.983Z,8.50
2018-11-25T17:07:39.619Z,8.50
2018-11-25T17:10:09.216Z,8.50
2018-11-25T17:12:36.860Z,8.40
2018-11-25T17:15:12.795Z,8.40
2018-11-25T17:17:41.006Z,8.50
2018-11-25T17:20:09.047Z,8.40
2018-11-25T17:22:36.724Z,8.40
2018-11-25T17:25:07.269Z,8.40
2018-11-25T17:27:34.983Z,8.50
2018-11-25T17:30:02.829Z,8.30
2018-11-25T17:32:30.514Z,8.20
2018-11-25T17:34:58.317Z,8.20
2018-11-25T17:37:26.098Z,8.10
2018-11-25T17:39:53.829Z,8.10
2018-11-25T17:42:21.562Z,8.10
2018-11-25T17:44:49.277Z,7.90
2018-11-25T17:47:16.920Z,7.80
2018-11-25T17:49:44.796Z,7.70
2018-11-25T17:52:12.465Z,7.70
2018-11-25T17:54:41.298Z,7.70
2018-11-25T17:57:08.981Z,7.60
2018-11-25T17:59:36.589Z,7.60
2018-11-25T18:02:05.947Z,7.50
2018-11-25T18:04:33.022Z,7.20
2018-11-25T18:07:00.848Z,7.00
2018-11-25T18:09:28.619Z,7.00
2018-11-25T18:11:57.121Z,6.90
2018-11-25T18:14:24.793Z,6.90
2018-11-25T18:16:52.882Z,6.90
2018-11-25T18:19:22.432Z,6.80
2018-11-25T18:21:53.160Z,6.80
2018-11-25T18:24:21.471Z,6.70
2018-11-25T18:26:49.178Z,6.70
2018-11-25T18:29:16.813Z,6.60
2018-11-25T18:31:44.486Z,6.60
2018-11-25T18:34:12.207Z,6.50
2018-11-25T18:36:39.778Z,6.50
2018-11-25T18:39:10.711Z,6.40
2018-11-25T18:41:38.523Z,6.30
2018-11-25T18:44:06.506Z,6.20
2018-11-25T18:46:34.935Z,6.30
2018-11-25T18:49:06.756Z,6.30
2018-11-25T18:51:34.390Z,6.30
2018-11-25T18:54:02.172Z,6.30
2018-11-25T18:56:29.888Z,6.30
2018-11-25T18:58:58.209Z,6.30
2018-11-25T19:01:39.933Z,6.30
2018-11-25T19:04:07.579Z,6.20
2018-11-25T19:06:35.281Z,6.20
2018-11-25T19:09:03.175Z,6.10
2018-11-25T19:11:31.082Z,6.10
2018-11-25T19:13:58.687Z,6.10
2018-11-25T19:16:26.437Z,6.10
2018-11-25T19:18:54.192Z,6.10
2018-11-25T19:21:22.152Z,6.10
2018-11-25T19:23:49.960Z,6.20
2018-11-25T19:26:17.703Z,6.20
2018-11-25T19:28:45.518Z,6.20
2018-11-25T19:31:13.299Z,6.20
2018-11-25T19:33:41.063Z,6.20
2018-11-25T19:36:08.765Z,6.20
2018-11-25T19:38:37.242Z,6.20
2018-11-25T19:41:06.205Z,6.20
2018-11-25T19:43:33.950Z,6.20
2018-11-25T19:46:03.237Z,6.20
2018-11-25T19:48:30.997Z,6.20
2018-11-25T19:50:59.216Z,6.30
2018-11-25T19:53:26.948Z,6.40
2018-11-25T19:55:54.844Z,6.40
2018-11-25T19:58:23.240Z,6.30
2018-11-25T20:00:51.797Z,6.40
2018-11-25T20:03:19.597Z,6.50
2018-11-25T20:05:47.401Z,6.50
2018-11-25T20:08:15.207Z,6.50
2018-11-25T20:10:43.125Z,6.50
2018-11-25T20:13:11.906Z,6.60
2018-11-25T20:15:38.736Z,6.50
2018-11-25T20:18:07.893Z,6.60
2018-11-25T20:20:35.756Z,6.60
2018-11-25T20:23:04.030Z,6.60
2018-11-25T20:25:31.933Z,6.60
2018-11-25T20:27:59.826Z,6.60
2018-11-25T20:30:29.550Z,6.70
2018-11-25T20:33:02.821Z,6.70
2018-11-25T20:35:30.673Z,6.70
2018-11-25T20:38:03.848Z,6.80
2018-11-25T20:40:31.840Z,6.80
2018-11-25T20:42:59.729Z,6.80
2018-11-25T20:45:38.561Z,6.90
2018-11-25T20:48:01.013Z,6.90
2018-11-25T20:50:28.813Z,6.90
2018-11-25T20:53:02.339Z,6.90
2018-11-25T20:55:30.038Z,6.90
2018-11-25T20:57:57.967Z,6.90
2018-11-25T21:00:28.764Z,6.90
2018-11-25T21:02:56.498Z,6.90
2018-11-25T21:05:24.376Z,6.90
2018-11-25T21:07:52.131Z,6.80
2018-11-25T21:10:20.309Z,6.80
2018-11-25T21:12:50.388Z,6.90
2018-11-25T21:15:18.162Z,7.00
2018-11-25T21:17:45.852Z,7.10
2018-11-25T21:20:14.962Z,7.10
2018-11-25T21:22:42.838Z,7.00
2018-11-25T21:25:13.701Z,7.00
2018-11-25T21:27:41.441Z,7.10
2018-11-25T21:30:13.280Z,7.00
2018-11-25T21:32:41.126Z,7.00
2018-11-25T21:35:10.179Z,6.90
2018-11-25T21:37:37.795Z,7.10
2018-11-25T21:40:17.658Z,7.00
2018-11-25T21:42:45.321Z,7.00
2018-11-25T21:45:15.107Z,7.00
2018-11-25T21:47:42.854Z,6.90
2018-11-25T21:50:12.792Z,6.90
2018-11-25T21:52:40.461Z,7.00
2018-11-25T21:55:10.444Z,7.00
2018-11-25T21:57:38.157Z,7.00
2018-11-25T22:00:08.868Z,7.00
2018-11-25T22:02:36.614Z,7.10
2018-11-25T22:05:05.274Z,7.10
2018-11-25T22:07:32.935Z,7.10
2018-11-25T22:10:00.650Z,7.10
2018-11-25T22:12:28.547Z,7.10
2018-11-25T22:14:56.219Z,7.10
2018-11-25T22:17:24.430Z,7.00
2018-11-25T22:19:52.066Z,7.00
2018-11-25T22:22:19.808Z,7.10
2018-11-25T22:24:48.281Z,7.20
2018-11-25T22:27:15.940Z,7.30
2018-11-25T22:29:43.602Z,7.30
2018-11-25T22:32:11.399Z,7.40
2018-11-25T22:34:39.123Z,7.40
2018-11-25T22:37:06.908Z,7.40
2018-11-25T22:39:35.227Z,7.30
2018-11-25T22:42:02.872Z,7.30
2018-11-25T22:44:31.178Z,7.30
2018-11-25T22:46:58.870Z,7.30
2018-11-25T22:49:27.219Z,7.20
2018-11-25T22:51:55.255Z,7.20
2018-11-25T22:54:23.606Z,7.20
2018-11-25T22:56:51.347Z,7.20
2018-11-25T22:59:19.262Z,7.10
2018-11-25T23:01:46.980Z,7.10
2018-11-25T23:04:25.932Z,7.30
2018-11-25T23:07:02.955Z,7.30
2018-11-25T23:09:31.536Z,7.20
2018-11-25T23:11:59.340Z,7.30
2018-11-25T23:14:27.004Z,7.20
2018-11-25T23:16:55.408Z,7.20
2018-11-25T23:19:23.020Z,7.30
2018-11-25T23:21:50.656Z,7.30
2018-11-25T23:24:18.258Z,7.30
2018-11-25T23:26:45.934Z,7.30
2018-11-25T23:29:14.401Z,7.20
2018-11-25T23:31:42.070Z,7.20
2018-11-25T23:34:09.760Z,7.20
2018-11-25T23:36:37.537Z,7.10
2018-11-25T23:39:08.455Z,7.10
2018-11-25T23:41:36.947Z,7.10
2018-11-25T23:44:05.881Z,7.10
2018-11-25T23:46:34.995Z,7.10
2018-11-25T23:49:02.653Z,7.10
2018-11-25T23:51:30.411Z,7.20
2018-11-25T23:53:58.561Z,7.20
